sensor_id;sensor_type;location;lat;lon;timestamp;pressure;altitude;pressure_sealevel;temperature;humidity
44872;BME280;30602;51.060;17.226;2023-07-13T00:00:24;101083.28;;;18.73;100.00
44872;BME280;30602;51.060;17.226;2023-07-13T00:04:02;101086.91;;;18.74;100.00
44872;BME280;30602;51.060;17.226;2023-07-13T00:07:49;101087.90;;;18.70;100.00
44872;BME280;30602;51.060;17.226;2023-07-13T00:11:12;101076.00;;;18.62;100.00
44872;BME280;30602;51.060;17.226;2023-07-13T00:15:24;101098.87;;;18.70;100.00
44872;BME280;30602;51.060;17.226;2023-07-13T00:19:22;101104.29;;;18.68;100.00
44872;BME280;30602;51.060;17.226;2023-07-13T00:23:18;101099.66;;;18.53;100.00
44872;BME280;30602;51.060;17.226;2023-07-13T00:30:41;101086.20;;;18.39;100.00
44872;BME280;30602;51.060;17.226;2023-07-13T00:34:08;101116.16;;;18.41;100.00
44872;BME280;30602;51.060;17.226;2023-07-13T00:37:37;101122.25;;;18.47;100.00
44872;BME280;30602;51.060;17.226;2023-07-13T00:41:19;101114.63;;;18.54;100.00
44872;BME280;30602;51.060;17.226;2023-07-13T00:48:34;101130.82;;;18.36;100.00
44872;BME280;30602;51.060;17.226;2023-07-13T00:52:07;101129.56;;;18.49;100.00
44872;BME280;30602;51.060;17.226;2023-07-13T00:55:39;101121.98;;;18.51;100.00
44872;BME280;30602;51.060;17.226;2023-07-13T00:59:19;101118.52;;;18.65;100.00
44872;BME280;30602;51.060;17.226;2023-07-13T01:02:45;101115.04;;;18.67;100.00
44872;BME280;30602;51.060;17.226;2023-07-13T01:06:11;101110.77;;;18.61;100.00
44872;BME280;30602;51.060;17.226;2023-07-13T01:09:40;101127.16;;;18.59;100.00
44872;BME280;30602;51.060;17.226;2023-07-13T01:13:08;101144.38;;;18.80;100.00
44872;BME280;30602;51.060;17.226;2023-07-13T01:16:40;101160.32;;;18.91;100.00
44872;BME280;30602;51.060;17.226;2023-07-13T01:20:07;101163.21;;;18.97;100.00
44872;BME280;30602;51.060;17.226;2023-07-13T01:23:32;101151.01;;;18.98;100.00
44872;BME280;30602;51.060;17.226;2023-07-13T01:27:06;101122.80;;;18.95;100.00
44872;BME280;30602;51.060;17.226;2023-07-13T01:30:32;101112.56;;;19.00;100.00
44872;BME280;30602;51.060;17.226;2023-07-13T01:33:57;101101.68;;;19.02;100.00
44872;BME280;30602;51.060;17.226;2023-07-13T01:37:24;101098.72;;;19.06;100.00
44872;BME280;30602;51.060;17.226;2023-07-13T01:40:48;101094.02;;;18.94;100.00
44872;BME280;30602;51.060;17.226;2023-07-13T01:44:08;101093.02;;;18.83;100.00
44872;BME280;30602;51.060;17.226;2023-07-13T01:47:32;101078.78;;;18.70;100.00
44872;BME280;30602;51.060;17.226;2023-07-13T01:51:00;101060.09;;;18.63;100.00
44872;BME280;30602;51.060;17.226;2023-07-13T01:54:24;101058.86;;;18.63;100.00
44872;BME280;30602;51.060;17.226;2023-07-13T01:57:49;101060.27;;;18.69;100.00
44872;BME280;30602;51.060;17.226;2023-07-13T02:01:10;101063.60;;;18.77;100.00
44872;BME280;30602;51.060;17.226;2023-07-13T02:04:40;101070.19;;;18.61;100.00
44872;BME280;30602;51.060;17.226;2023-07-13T02:08:04;101074.55;;;18.38;100.00
44872;BME280;30602;51.060;17.226;2023-07-13T02:15:17;101066.55;;;18.15;100.00
44872;BME280;30602;51.060;17.226;2023-07-13T02:18:46;101030.76;;;17.97;100.00
44872;BME280;30602;51.060;17.226;2023-07-13T02:22:15;101048.52;;;18.10;100.00
44872;BME280;30602;51.060;17.226;2023-07-13T02:25:57;101040.82;;;18.13;100.00
44872;BME280;30602;51.060;17.226;2023-07-13T02:29:27;101055.03;;;18.11;100.00
44872;BME280;30602;51.060;17.226;2023-07-13T02:33:19;101063.87;;;17.93;100.00
44872;BME280;30602;51.060;17.226;2023-07-13T02:37:15;101072.54;;;17.98;100.00
44872;BME280;30602;51.060;17.226;2023-07-13T02:41:19;101064.96;;;17.84;100.00
44872;BME280;30602;51.060;17.226;2023-07-13T02:44:45;101056.58;;;17.72;100.00
44872;BME280;30602;51.060;17.226;2023-07-13T02:48:37;101050.10;;;17.70;100.00
44872;BME280;30602;51.060;17.226;2023-07-13T02:52:37;101046.41;;;17.65;100.00
44872;BME280;30602;51.060;17.226;2023-07-13T02:56:28;101057.89;;;17.56;100.00
44872;BME280;30602;51.060;17.226;2023-07-13T03:00:33;101045.36;;;17.41;100.00
44872;BME280;30602;51.060;17.226;2023-07-13T03:04:28;101063.26;;;17.52;100.00
44872;BME280;30602;51.060;17.226;2023-07-13T03:08:14;101060.07;;;17.58;100.00
44872;BME280;30602;51.060;17.226;2023-07-13T03:11:42;101070.52;;;17.82;100.00
44872;BME280;30602;51.060;17.226;2023-07-13T03:16:19;101070.43;;;17.97;100.00
44872;BME280;30602;51.060;17.226;2023-07-13T03:19:59;101062.11;;;18.02;100.00
44872;BME280;30602;51.060;17.226;2023-07-13T03:23:27;101055.82;;;17.98;100.00
44872;BME280;30602;51.060;17.226;2023-07-13T03:27:13;101065.13;;;18.07;100.00
44872;BME280;30602;51.060;17.226;2023-07-13T03:31:05;101079.79;;;18.22;100.00
44872;BME280;30602;51.060;17.226;2023-07-13T03:35:11;101068.30;;;18.47;100.00
44872;BME280;30602;51.060;17.226;2023-07-13T03:39:23;101073.84;;;18.56;100.00
44872;BME280;30602;51.060;17.226;2023-07-13T03:43:22;101083.05;;;18.54;100.00
44872;BME280;30602;51.060;17.226;2023-07-13T03:46:57;101084.11;;;18.52;100.00
44872;BME280;30602;51.060;17.226;2023-07-13T03:50:53;101070.99;;;18.51;100.00
44872;BME280;30602;51.060;17.226;2023-07-13T03:55:26;101069.82;;;18.63;100.00
44872;BME280;30602;51.060;17.226;2023-07-13T03:59:09;101060.80;;;18.69;100.00
44872;BME280;30602;51.060;17.226;2023-07-13T04:02:37;101085.12;;;18.81;100.00
44872;BME280;30602;51.060;17.226;2023-07-13T04:06:58;101086.92;;;18.79;100.00
44872;BME280;30602;51.060;17.226;2023-07-13T04:10:45;101089.27;;;18.74;100.00
44872;BME280;30602;51.060;17.226;2023-07-13T04:14:41;101099.33;;;18.78;100.00
44872;BME280;30602;51.060;17.226;2023-07-13T04:18:12;101105.73;;;18.77;100.00
44872;BME280;30602;51.060;17.226;2023-07-13T04:21:43;101109.77;;;18.80;100.00
44872;BME280;30602;51.060;17.226;2023-07-13T04:25:28;101116.48;;;18.80;100.00
44872;BME280;30602;51.060;17.226;2023-07-13T04:29:12;101129.97;;;18.79;100.00
44872;BME280;30602;51.060;17.226;2023-07-13T04:32:52;101145.38;;;18.78;100.00
44872;BME280;30602;51.060;17.226;2023-07-13T04:36:21;101169.77;;;18.74;100.00
44872;BME280;30602;51.060;17.226;2023-07-13T04:40:09;101190.25;;;18.73;100.00
44872;BME280;30602;51.060;17.226;2023-07-13T04:43:49;101263.01;;;18.81;100.00
44872;BME280;30602;51.060;17.226;2023-07-13T04:47:18;101284.90;;;18.81;100.00
44872;BME280;30602;51.060;17.226;2023-07-13T04:51:37;101310.04;;;18.75;100.00
44872;BME280;30602;51.060;17.226;2023-07-13T04:55:21;101340.92;;;18.40;95.21
44872;BME280;30602;51.060;17.226;2023-07-13T04:59:38;101397.74;;;18.03;96.48
44872;BME280;30602;51.060;17.226;2023-07-13T05:03:33;101412.22;;;17.56;99.88
44872;BME280;30602;51.060;17.226;2023-07-13T05:07:04;101374.48;;;17.21;100.00
44872;BME280;30602;51.060;17.226;2023-07-13T05:10:51;101356.95;;;17.03;100.00
44872;BME280;30602;51.060;17.226;2023-07-13T05:14:40;101365.20;;;16.80;100.00
44872;BME280;30602;51.060;17.226;2023-07-13T05:18:29;101366.27;;;16.63;100.00
44872;BME280;30602;51.060;17.226;2023-07-13T05:22:52;101362.58;;;16.47;100.00
44872;BME280;30602;51.060;17.226;2023-07-13T05:26:53;101349.88;;;16.40;100.00
44872;BME280;30602;51.060;17.226;2023-07-13T05:30:47;101333.58;;;16.37;100.00
44872;BME280;30602;51.060;17.226;2023-07-13T05:34:36;101351.16;;;16.35;100.00
44872;BME280;30602;51.060;17.226;2023-07-13T05:42:34;101320.51;;;16.21;100.00
44872;BME280;30602;51.060;17.226;2023-07-13T05:46:20;101310.80;;;16.11;100.00
44872;BME280;30602;51.060;17.226;2023-07-13T05:50:07;101352.77;;;16.15;100.00
44872;BME280;30602;51.060;17.226;2023-07-13T05:53:55;101355.30;;;16.28;100.00
44872;BME280;30602;51.060;17.226;2023-07-13T05:57:42;101325.02;;;16.39;100.00
44872;BME280;30602;51.060;17.226;2023-07-13T06:01:26;101269.58;;;16.37;100.00
44872;BME280;30602;51.060;17.226;2023-07-13T06:09:36;101240.07;;;16.14;100.00
44872;BME280;30602;51.060;17.226;2023-07-13T06:17:29;101212.90;;;16.03;100.00
44872;BME280;30602;51.060;17.226;2023-07-13T06:21:16;101226.05;;;16.16;100.00
44872;BME280;30602;51.060;17.226;2023-07-13T06:24:44;101245.53;;;16.35;100.00
44872;BME280;30602;51.060;17.226;2023-07-13T06:29:09;101257.14;;;16.40;100.00
44872;BME280;30602;51.060;17.226;2023-07-13T06:32:58;101277.97;;;16.48;100.00
44872;BME280;30602;51.060;17.226;2023-07-13T06:36:46;101272.68;;;16.69;100.00
44872;BME280;30602;51.060;17.226;2023-07-13T06:40:11;101259.38;;;16.77;100.00
44872;BME280;30602;51.060;17.226;2023-07-13T06:43:37;101266.74;;;16.89;100.00
44872;BME280;30602;51.060;17.226;2023-07-13T06:47:08;101281.13;;;17.03;100.00
44872;BME280;30602;51.060;17.226;2023-07-13T06:51:22;101291.48;;;17.26;100.00
44872;BME280;30602;51.060;17.226;2023-07-13T06:54:51;101314.23;;;17.18;100.00
44872;BME280;30602;51.060;17.226;2023-07-13T06:58:48;101322.24;;;17.05;100.00
44872;BME280;30602;51.060;17.226;2023-07-13T07:02:42;101343.98;;;17.11;100.00
44872;BME280;30602;51.060;17.226;2023-07-13T07:06:16;101363.31;;;17.15;100.00
44872;BME280;30602;51.060;17.226;2023-07-13T07:09:44;101407.41;;;17.16;100.00
44872;BME280;30602;51.060;17.226;2023-07-13T07:13:43;101422.23;;;17.04;100.00
44872;BME280;30602;51.060;17.226;2023-07-13T07:17:16;101457.91;;;17.10;100.00
44872;BME280;30602;51.060;17.226;2023-07-13T07:21:02;101463.50;;;17.03;100.00
44872;BME280;30602;51.060;17.226;2023-07-13T07:24:47;101456.26;;;17.01;100.00
44872;BME280;30602;51.060;17.226;2023-07-13T07:29:26;101446.06;;;17.08;100.00
44872;BME280;30602;51.060;17.226;2023-07-13T07:32:59;101451.20;;;17.16;100.00
44872;BME280;30602;51.060;17.226;2023-07-13T07:36:25;101435.55;;;17.12;100.00
44872;BME280;30602;51.060;17.226;2023-07-13T07:40:11;101411.50;;;17.24;100.00
44872;BME280;30602;51.060;17.226;2023-07-13T07:43:41;101385.30;;;17.22;100.00
44872;BME280;30602;51.060;17.226;2023-07-13T07:47:22;101351.45;;;17.05;100.00
44872;BME280;30602;51.060;17.226;2023-07-13T07:51:19;101312.91;;;17.05;100.00
44872;BME280;30602;51.060;17.226;2023-07-13T07:54:59;101288.00;;;17.19;100.00
44872;BME280;30602;51.060;17.226;2023-07-13T07:58:25;101294.13;;;17.16;100.00
44872;BME280;30602;51.060;17.226;2023-07-13T08:02:57;101302.26;;;17.23;100.00
44872;BME280;30602;51.060;17.226;2023-07-13T08:06:24;101295.59;;;17.26;100.00
44872;BME280;30602;51.060;17.226;2023-07-13T08:09:57;101297.52;;;17.33;100.00
44872;BME280;30602;51.060;17.226;2023-07-13T08:13:25;101292.54;;;17.56;100.00
44872;BME280;30602;51.060;17.226;2023-07-13T08:17:17;101286.00;;;17.84;100.00
44872;BME280;30602;51.060;17.226;2023-07-13T08:20:46;101293.27;;;18.00;100.00
44872;BME280;30602;51.060;17.226;2023-07-13T08:24:08;101308.97;;;18.00;100.00
44872;BME280;30602;51.060;17.226;2023-07-13T08:27:39;101320.37;;;17.97;100.00
44872;BME280;30602;51.060;17.226;2023-07-13T08:31:32;101347.47;;;18.25;100.00
44872;BME280;30602;51.060;17.226;2023-07-13T08:35:16;101358.09;;;18.37;100.00
44872;BME280;30602;51.060;17.226;2023-07-13T08:39:16;101372.31;;;18.52;100.00
44872;BME280;30602;51.060;17.226;2023-07-13T08:43:00;101390.27;;;18.68;100.00
44872;BME280;30602;51.060;17.226;2023-07-13T08:46:41;101400.72;;;18.77;100.00
44872;BME280;30602;51.060;17.226;2023-07-13T08:50:13;101408.14;;;18.82;100.00
44872;BME280;30602;51.060;17.226;2023-07-13T08:53:47;101414.51;;;18.92;100.00
44872;BME280;30602;51.060;17.226;2023-07-13T08:57:33;101420.70;;;19.09;100.00
44872;BME280;30602;51.060;17.226;2023-07-13T09:04:37;101425.73;;;19.30;100.00
44872;BME280;30602;51.060;17.226;2023-07-13T09:12:50;101429.97;;;19.43;100.00
44872;BME280;30602;51.060;17.226;2023-07-13T09:16:46;101431.15;;;19.56;100.00
44872;BME280;30602;51.060;17.226;2023-07-13T09:20:28;101431.09;;;19.49;100.00
44872;BME280;30602;51.060;17.226;2023-07-13T09:27:55;101426.59;;;19.46;99.15
44872;BME280;30602;51.060;17.226;2023-07-13T09:31:33;101429.96;;;19.70;100.00
44872;BME280;30602;51.060;17.226;2023-07-13T09:34:59;101428.12;;;19.75;100.00
44872;BME280;30602;51.060;17.226;2023-07-13T09:42:58;101426.20;;;19.88;99.88
44872;BME280;30602;51.060;17.226;2023-07-13T09:46:44;101418.55;;;20.16;100.00
44872;BME280;30602;51.060;17.226;2023-07-13T09:50:36;101416.75;;;20.36;100.00
44872;BME280;30602;51.060;17.226;2023-07-13T09:54:37;101425.05;;;20.23;100.00
44872;BME280;30602;51.060;17.226;2023-07-13T09:58:32;101417.70;;;20.24;100.00
44872;BME280;30602;51.060;17.226;2023-07-13T10:05:41;101405.02;;;20.27;100.00
44872;BME280;30602;51.060;17.226;2023-07-13T10:09:08;101399.53;;;20.03;98.18
44872;BME280;30602;51.060;17.226;2023-07-13T10:12:30;101398.30;;;20.13;96.05
44872;BME280;30602;51.060;17.226;2023-07-13T10:16:30;101388.08;;;20.45;95.26
44872;BME280;30602;51.060;17.226;2023-07-13T10:20:34;101387.35;;;20.62;95.48
44872;BME280;30602;51.060;17.226;2023-07-13T10:24:19;101390.27;;;20.70;95.12
44872;BME280;30602;51.060;17.226;2023-07-13T10:31:45;101410.42;;;20.94;97.45
44872;BME280;30602;51.060;17.226;2023-07-13T10:40:31;101416.63;;;21.08;90.56
44872;BME280;30602;51.060;17.226;2023-07-13T10:44:31;101421.95;;;21.17;92.04
44872;BME280;30602;51.060;17.226;2023-07-13T10:48:04;101420.05;;;21.25;93.20
44872;BME280;30602;51.060;17.226;2023-07-13T10:56:01;101407.73;;;21.81;94.44
44872;BME280;30602;51.060;17.226;2023-07-13T11:04:20;101409.54;;;22.21;91.69
44872;BME280;30602;51.060;17.226;2023-07-13T11:08:32;101406.41;;;22.48;88.15
44872;BME280;30602;51.060;17.226;2023-07-13T11:12:01;101402.73;;;22.52;91.25
44872;BME280;30602;51.060;17.226;2023-07-13T11:15:50;101409.09;;;22.46;87.20
44872;BME280;30602;51.060;17.226;2023-07-13T11:19:53;101400.96;;;22.42;87.67
44872;BME280;30602;51.060;17.226;2023-07-13T11:23:19;101403.01;;;22.76;86.84
44872;BME280;30602;51.060;17.226;2023-07-13T11:34:38;101407.32;;;22.51;86.69
44872;BME280;30602;51.060;17.226;2023-07-13T11:38:55;101412.56;;;22.30;78.88
44872;BME280;30602;51.060;17.226;2023-07-13T11:42:28;101405.75;;;22.51;82.74
44872;BME280;30602;51.060;17.226;2023-07-13T11:45:51;101393.01;;;22.61;85.06
44872;BME280;30602;51.060;17.226;2023-07-13T11:49:31;101398.16;;;22.51;80.53
44872;BME280;30602;51.060;17.226;2023-07-13T11:53:11;101404.17;;;22.59;77.76
44872;BME280;30602;51.060;17.226;2023-07-13T11:57:37;101401.81;;;22.75;75.71
44872;BME280;30602;51.060;17.226;2023-07-13T12:01:29;101402.41;;;22.95;70.67
44872;BME280;30602;51.060;17.226;2023-07-13T12:05:09;101402.15;;;22.99;72.34
44872;BME280;30602;51.060;17.226;2023-07-13T12:09:27;101409.87;;;22.97;73.54
44872;BME280;30602;51.060;17.226;2023-07-13T12:14:53;101404.78;;;22.99;76.17
44872;BME280;30602;51.060;17.226;2023-07-13T12:21:59;101410.63;;;22.92;68.90
44872;BME280;30602;51.060;17.226;2023-07-13T12:25:54;101407.45;;;22.99;68.50
44872;BME280;30602;51.060;17.226;2023-07-13T12:29:16;101411.82;;;23.06;71.41
44872;BME280;30602;51.060;17.226;2023-07-13T12:33:10;101414.71;;;23.03;69.11
44872;BME280;30602;51.060;17.226;2023-07-13T12:36:51;101413.14;;;23.06;68.34
44872;BME280;30602;51.060;17.226;2023-07-13T12:40:35;101405.99;;;23.06;69.18
44872;BME280;30602;51.060;17.226;2023-07-13T12:44:41;101400.17;;;23.37;70.07
44872;BME280;30602;51.060;17.226;2023-07-13T12:48:42;101402.18;;;23.57;65.65
44872;BME280;30602;51.060;17.226;2023-07-13T12:52:27;101397.98;;;23.87;67.18
44872;BME280;30602;51.060;17.226;2023-07-13T12:55:52;101391.09;;;24.06;64.68
44872;BME280;30602;51.060;17.226;2023-07-13T12:59:32;101393.22;;;24.45;68.73
44872;BME280;30602;51.060;17.226;2023-07-13T13:03:45;101392.98;;;24.46;63.40
44872;BME280;30602;51.060;17.226;2023-07-13T13:07:40;101385.01;;;24.31;58.12
44872;BME280;30602;51.060;17.226;2023-07-13T13:11:46;101387.49;;;24.50;65.11
44872;BME280;30602;51.060;17.226;2023-07-13T13:15:53;101386.85;;;24.40;62.96
44872;BME280;30602;51.060;17.226;2023-07-13T13:19:43;101388.44;;;24.30;61.03
44872;BME280;30602;51.060;17.226;2023-07-13T13:23:22;101392.14;;;24.43;57.90
44872;BME280;30602;51.060;17.226;2023-07-13T13:27:22;101382.15;;;24.56;62.81
44872;BME280;30602;51.060;17.226;2023-07-13T13:31:02;101385.71;;;24.53;61.16
44872;BME280;30602;51.060;17.226;2023-07-13T13:34:27;101386.99;;;24.38;54.77
44872;BME280;30602;51.060;17.226;2023-07-13T13:38:16;101390.71;;;24.42;55.52
44872;BME280;30602;51.060;17.226;2023-07-13T13:42:12;101387.98;;;24.63;55.66
44872;BME280;30602;51.060;17.226;2023-07-13T13:45:58;101382.43;;;24.79;54.54
44872;BME280;30602;51.060;17.226;2023-07-13T13:49:42;101383.62;;;24.57;55.48
44872;BME280;30602;51.060;17.226;2023-07-13T13:53:24;101378.22;;;24.77;57.18
44872;BME280;30602;51.060;17.226;2023-07-13T13:57:19;101377.71;;;24.76;51.11
44872;BME280;30602;51.060;17.226;2023-07-13T14:01:16;101366.10;;;24.90;47.85
44872;BME280;30602;51.060;17.226;2023-07-13T14:05:09;101359.76;;;24.99;45.83
44872;BME280;30602;51.060;17.226;2023-07-13T14:08:46;101357.21;;;24.92;50.14
44872;BME280;30602;51.060;17.226;2023-07-13T14:12:36;101344.31;;;24.94;49.63
44872;BME280;30602;51.060;17.226;2023-07-13T14:16:30;101338.77;;;24.91;50.51
44872;BME280;30602;51.060;17.226;2023-07-13T14:20:13;101344.42;;;25.13;45.81
44872;BME280;30602;51.060;17.226;2023-07-13T14:24:13;101348.99;;;25.32;50.80
44872;BME280;30602;51.060;17.226;2023-07-13T14:31:48;101350.63;;;25.44;49.01
44872;BME280;30602;51.060;17.226;2023-07-13T14:40:01;101333.66;;;25.33;51.92
44872;BME280;30602;51.060;17.226;2023-07-13T14:43:29;101334.23;;;25.42;52.88
44872;BME280;30602;51.060;17.226;2023-07-13T14:47:13;101332.89;;;25.54;53.04
44872;BME280;30602;51.060;17.226;2023-07-13T14:51:00;101327.92;;;25.52;50.20
44872;BME280;30602;51.060;17.226;2023-07-13T14:54:48;101331.35;;;25.50;52.33
44872;BME280;30602;51.060;17.226;2023-07-13T14:58:14;101326.88;;;25.45;55.82
44872;BME280;30602;51.060;17.226;2023-07-13T15:01:56;101329.34;;;25.23;49.03
44872;BME280;30602;51.060;17.226;2023-07-13T15:05:20;101333.14;;;25.50;54.14
44872;BME280;30602;51.060;17.226;2023-07-13T15:09:15;101336.10;;;25.83;45.69
44872;BME280;30602;51.060;17.226;2023-07-13T15:13:12;101324.18;;;26.00;46.45
44872;BME280;30602;51.060;17.226;2023-07-13T15:16:51;101322.74;;;25.85;45.74
44872;BME280;30602;51.060;17.226;2023-07-13T15:20:31;101322.37;;;25.91;45.98
44872;BME280;30602;51.060;17.226;2023-07-13T15:24:02;101324.49;;;26.04;49.65
44872;BME280;30602;51.060;17.226;2023-07-13T15:27:54;101320.88;;;26.01;45.00
44872;BME280;30602;51.060;17.226;2023-07-13T15:31:40;101317.39;;;25.97;46.09
44872;BME280;30602;51.060;17.226;2023-07-13T15:35:36;101318.68;;;25.73;42.83
44872;BME280;30602;51.060;17.226;2023-07-13T15:39:19;101318.01;;;25.48;45.39
44872;BME280;30602;51.060;17.226;2023-07-13T15:42:50;101325.37;;;25.11;47.31
44872;BME280;30602;51.060;17.226;2023-07-13T15:46:41;101324.90;;;25.11;48.16
44872;BME280;30602;51.060;17.226;2023-07-13T15:54:23;101315.31;;;25.33;47.03
44872;BME280;30602;51.060;17.226;2023-07-13T15:57:50;101312.61;;;25.39;47.30
44872;BME280;30602;51.060;17.226;2023-07-13T16:01:41;101321.24;;;25.46;45.50
44872;BME280;30602;51.060;17.226;2023-07-13T16:05:55;101331.45;;;25.44;48.57
44872;BME280;30602;51.060;17.226;2023-07-13T16:09:27;101346.55;;;25.32;50.85
44872;BME280;30602;51.060;17.226;2023-07-13T16:12:56;101349.89;;;24.88;51.55
44872;BME280;30602;51.060;17.226;2023-07-13T16:16:25;101365.66;;;24.75;52.85
44872;BME280;30602;51.060;17.226;2023-07-13T16:20:26;101368.57;;;24.58;53.43
44872;BME280;30602;51.060;17.226;2023-07-13T16:24:28;101372.86;;;24.55;54.04
44872;BME280;30602;51.060;17.226;2023-07-13T16:27:52;101378.97;;;24.55;56.60
44872;BME280;30602;51.060;17.226;2023-07-13T16:31:58;101380.03;;;24.34;55.88
44872;BME280;30602;51.060;17.226;2023-07-13T16:35:22;101386.80;;;24.26;56.51
44872;BME280;30602;51.060;17.226;2023-07-13T16:38:57;101385.97;;;24.36;58.37
44872;BME280;30602;51.060;17.226;2023-07-13T16:42:46;101383.99;;;24.23;59.96
44872;BME280;30602;51.060;17.226;2023-07-13T16:47:31;101390.13;;;24.15;59.79
44872;BME280;30602;51.060;17.226;2023-07-13T16:51:13;101391.34;;;24.70;58.72
44872;BME280;30602;51.060;17.226;2023-07-13T16:54:57;101388.26;;;24.81;56.66
44872;BME280;30602;51.060;17.226;2023-07-13T16:59:15;101369.37;;;24.88;56.21
44872;BME280;30602;51.060;17.226;2023-07-13T17:03:24;101388.65;;;24.41;57.84
44872;BME280;30602;51.060;17.226;2023-07-13T17:06:47;101391.92;;;24.05;61.09
44872;BME280;30602;51.060;17.226;2023-07-13T17:10:27;101389.13;;;23.80;64.43
44872;BME280;30602;51.060;17.226;2023-07-13T17:14:22;101394.76;;;23.58;66.03
44872;BME280;30602;51.060;17.226;2023-07-13T17:18:10;101382.60;;;23.29;66.77
44872;BME280;30602;51.060;17.226;2023-07-13T17:21:55;101392.01;;;23.10;69.77
44872;BME280;30602;51.060;17.226;2023-07-13T17:25:33;101390.67;;;22.98;71.11
44872;BME280;30602;51.060;17.226;2023-07-13T17:29:15;101388.41;;;22.81;72.65
44872;BME280;30602;51.060;17.226;2023-07-13T17:32:49;101391.01;;;22.62;75.22
44872;BME280;30602;51.060;17.226;2023-07-13T17:36:30;101397.98;;;22.51;75.48
44872;BME280;30602;51.060;17.226;2023-07-13T17:40:16;101399.20;;;22.43;77.22
44872;BME280;30602;51.060;17.226;2023-07-13T17:44:13;101389.63;;;22.20;80.24
44872;BME280;30602;51.060;17.226;2023-07-13T17:47:50;101404.63;;;22.20;80.01
44872;BME280;30602;51.060;17.226;2023-07-13T17:51:32;101404.24;;;22.08;79.81
44872;BME280;30602;51.060;17.226;2023-07-13T17:55:18;101407.35;;;22.10;83.56
44872;BME280;30602;51.060;17.226;2023-07-13T17:59:12;101404.24;;;22.06;82.75
44872;BME280;30602;51.060;17.226;2023-07-13T18:03:00;101411.20;;;22.05;82.55
44872;BME280;30602;51.060;17.226;2023-07-13T18:06:39;101408.84;;;22.01;83.55
44872;BME280;30602;51.060;17.226;2023-07-13T18:11:08;101409.99;;;21.99;79.51
44872;BME280;30602;51.060;17.226;2023-07-13T18:14:48;101416.91;;;22.00;78.44
44872;BME280;30602;51.060;17.226;2023-07-13T18:18:18;101420.04;;;21.90;79.13
44872;BME280;30602;51.060;17.226;2023-07-13T18:21:40;101422.23;;;21.83;78.47
44872;BME280;30602;51.060;17.226;2023-07-13T18:25:13;101429.77;;;21.81;76.36
44872;BME280;30602;51.060;17.226;2023-07-13T18:28:56;101435.36;;;21.77;77.14
44872;BME280;30602;51.060;17.226;2023-07-13T18:33:22;101438.14;;;21.63;78.27
44872;BME280;30602;51.060;17.226;2023-07-13T18:37:21;101442.04;;;21.46;79.20
44872;BME280;30602;51.060;17.226;2023-07-13T18:41:04;101442.15;;;21.29;81.37
44872;BME280;30602;51.060;17.226;2023-07-13T18:44:28;101446.80;;;21.11;82.33
44872;BME280;30602;51.060;17.226;2023-07-13T18:48:25;101440.50;;;21.09;83.22
44872;BME280;30602;51.060;17.226;2023-07-13T18:52:21;101444.98;;;21.11;83.87
44872;BME280;30602;51.060;17.226;2023-07-13T18:56:01;101452.27;;;21.05;85.34
44872;BME280;30602;51.060;17.226;2023-07-13T18:59:24;101456.57;;;20.97;86.16
44872;BME280;30602;51.060;17.226;2023-07-13T19:03:30;101451.37;;;20.90;88.27
44872;BME280;30602;51.060;17.226;2023-07-13T19:07:22;101457.78;;;20.78;92.01
44872;BME280;30602;51.060;17.226;2023-07-13T19:11:04;101466.81;;;20.70;90.95
44872;BME280;30602;51.060;17.226;2023-07-13T19:14:24;101482.39;;;20.65;91.27
44872;BME280;30602;51.060;17.226;2023-07-13T19:18:17;101548.91;;;20.57;86.98
44872;BME280;30602;51.060;17.226;2023-07-13T19:22:04;101563.98;;;20.38;83.09
44872;BME280;30602;51.060;17.226;2023-07-13T19:25:41;101597.90;;;19.70;80.32
44872;BME280;30602;51.060;17.226;2023-07-13T19:29:23;101613.86;;;19.08;82.62
44872;BME280;30602;51.060;17.226;2023-07-13T19:33:17;101604.52;;;18.94;90.47
44872;BME280;30602;51.060;17.226;2023-07-13T19:41:23;101556.14;;;18.36;91.33
44872;BME280;30602;51.060;17.226;2023-07-13T19:45:07;101554.09;;;18.05;91.72
44872;BME280;30602;51.060;17.226;2023-07-13T19:48:33;101553.87;;;18.13;92.99
44872;BME280;30602;51.060;17.226;2023-07-13T19:52:27;101557.32;;;18.12;92.96
44872;BME280;30602;51.060;17.226;2023-07-13T19:56:08;101555.61;;;17.96;95.77
44872;BME280;30602;51.060;17.226;2023-07-13T20:00:00;101556.03;;;17.91;94.85
44872;BME280;30602;51.060;17.226;2023-07-13T20:03:27;101560.77;;;17.91;94.96
44872;BME280;30602;51.060;17.226;2023-07-13T20:06:48;101565.55;;;17.89;95.56
44872;BME280;30602;51.060;17.226;2023-07-13T20:14:26;101576.54;;;17.79;97.85
44872;BME280;30602;51.060;17.226;2023-07-13T20:18:14;101584.73;;;17.54;97.72
44872;BME280;30602;51.060;17.226;2023-07-13T20:22:39;101586.84;;;17.64;100.00
44872;BME280;30602;51.060;17.226;2023-07-13T20:29:57;101604.49;;;17.62;100.00
44872;BME280;30602;51.060;17.226;2023-07-13T20:34:02;101644.77;;;17.36;100.00
44872;BME280;30602;51.060;17.226;2023-07-13T20:37:46;101640.32;;;17.44;100.00
44872;BME280;30602;51.060;17.226;2023-07-13T20:41:17;101642.48;;;17.47;100.00
44872;BME280;30602;51.060;17.226;2023-07-13T20:45:14;101620.02;;;17.48;100.00
44872;BME280;30602;51.060;17.226;2023-07-13T20:49:10;101587.88;;;17.57;100.00